sensor_id;sensor_type;location;lat;lon;timestamp;P1;durP1;ratioP1;P2;durP2;ratioP2
47778;SDS011;33538;48.432;11.350;2023-05-07T00:00:45;3.70;;;1.50;;
47778;SDS011;33538;48.432;11.350;2023-05-07T00:03:14;2.08;;;1.60;;
47778;SDS011;33538;48.432;11.350;2023-05-07T00:05:40;1.52;;;1.40;;
47778;SDS011;33538;48.432;11.350;2023-05-07T00:08:07;3.35;;;1.75;;
47778;SDS011;33538;48.432;11.350;2023-05-07T00:10:34;2.05;;;1.50;;
47778;SDS011;33538;48.432;11.350;2023-05-07T00:13:01;4.63;;;1.60;;
47778;SDS011;33538;48.432;11.350;2023-05-07T00:15:28;1.60;;;1.50;;
47778;SDS011;33538;48.432;11.350;2023-05-07T00:17:55;3.17;;;2.00;;
47778;SDS011;33538;48.432;11.350;2023-05-07T00:20:23;2.25;;;1.67;;
47778;SDS011;33538;48.432;11.350;2023-05-07T00:22:50;4.65;;;1.65;;
47778;SDS011;33538;48.432;11.350;2023-05-07T00:25:16;1.50;;;1.40;;
47778;SDS011;33538;48.432;11.350;2023-05-07T00:27:43;2.20;;;1.58;;
47778;SDS011;33538;48.432;11.350;2023-05-07T00:30:10;1.90;;;1.55;;
47778;SDS011;33538;48.432;11.350;2023-05-07T00:32:38;2.05;;;1.85;;
47778;SDS011;33538;48.432;11.350;2023-05-07T00:35:05;2.13;;;1.40;;
47778;SDS011;33538;48.432;11.350;2023-05-07T00:37:34;1.85;;;1.52;;
47778;SDS011;33538;48.432;11.350;2023-05-07T00:40:01;1.67;;;1.42;;
47778;SDS011;33538;48.432;11.350;2023-05-07T00:42:28;1.70;;;1.52;;
47778;SDS011;33538;48.432;11.350;2023-05-07T00:44:55;1.70;;;1.60;;
47778;SDS011;33538;48.432;11.350;2023-05-07T00:47:22;1.40;;;1.30;;
47778;SDS011;33538;48.432;11.350;2023-05-07T00:49:48;1.80;;;1.63;;
47778;SDS011;33538;48.432;11.350;2023-05-07T00:52:16;4.88;;;1.63;;
47778;SDS011;33538;48.432;11.350;2023-05-07T00:54:44;2.22;;;1.70;;
47778;SDS011;33538;48.432;11.350;2023-05-07T00:57:12;4.38;;;1.77;;
47778;SDS011;33538;48.432;11.350;2023-05-07T00:59:38;1.92;;;1.80;;
47778;SDS011;33538;48.432;11.350;2023-05-07T01:02:05;2.63;;;2.05;;
47778;SDS011;33538;48.432;11.350;2023-05-07T01:04:32;5.70;;;1.92;;
47778;SDS011;33538;48.432;11.350;2023-05-07T01:07:00;2.70;;;1.55;;
47778;SDS011;33538;48.432;11.350;2023-05-07T01:09:28;2.10;;;1.70;;
47778;SDS011;33538;48.432;11.350;2023-05-07T01:11:57;4.03;;;1.60;;
47778;SDS011;33538;48.432;11.350;2023-05-07T01:14:24;3.65;;;1.52;;
47778;SDS011;33538;48.432;11.350;2023-05-07T01:16:51;2.28;;;1.50;;
47778;SDS011;33538;48.432;11.350;2023-05-07T01:19:19;1.92;;;1.52;;
47778;SDS011;33538;48.432;11.350;2023-05-07T01:21:46;4.43;;;2.05;;
47778;SDS011;33538;48.432;11.350;2023-05-07T01:24:15;3.03;;;1.85;;
47778;SDS011;33538;48.432;11.350;2023-05-07T01:26:43;2.00;;;1.75;;
47778;SDS011;33538;48.432;11.350;2023-05-07T01:29:10;2.53;;;1.90;;
47778;SDS011;33538;48.432;11.350;2023-05-07T01:31:37;3.40;;;1.80;;
47778;SDS011;33538;48.432;11.350;2023-05-07T01:34:05;2.20;;;1.85;;
47778;SDS011;33538;48.432;11.350;2023-05-07T01:36:34;6.03;;;1.55;;
47778;SDS011;33538;48.432;11.350;2023-05-07T01:39:03;3.38;;;1.52;;
47778;SDS011;33538;48.432;11.350;2023-05-07T01:41:32;6.10;;;1.73;;
47778;SDS011;33538;48.432;11.350;2023-05-07T01:43:58;3.70;;;1.70;;
47778;SDS011;33538;48.432;11.350;2023-05-07T01:46:26;2.03;;;1.65;;
47778;SDS011;33538;48.432;11.350;2023-05-07T01:48:53;2.10;;;1.90;;
47778;SDS011;33538;48.432;11.350;2023-05-07T01:51:20;2.25;;;1.75;;
47778;SDS011;33538;48.432;11.350;2023-05-07T01:53:47;3.05;;;2.00;;
47778;SDS011;33538;48.432;11.350;2023-05-07T01:56:14;2.13;;;1.85;;
47778;SDS011;33538;48.432;11.350;2023-05-07T01:58:42;2.25;;;1.77;;
47778;SDS011;33538;48.432;11.350;2023-05-07T02:01:10;1.67;;;1.52;;
47778;SDS011;33538;48.432;11.350;2023-05-07T02:03:36;1.88;;;1.52;;
47778;SDS011;33538;48.432;11.350;2023-05-07T02:06:03;2.65;;;1.90;;
47778;SDS011;33538;48.432;11.350;2023-05-07T02:08:30;1.88;;;1.70;;
47778;SDS011;33538;48.432;11.350;2023-05-07T02:10:57;1.55;;;1.40;;
47778;SDS011;33538;48.432;11.350;2023-05-07T02:13:25;3.92;;;2.00;;
47778;SDS011;33538;48.432;11.350;2023-05-07T02:15:54;3.22;;;1.88;;
47778;SDS011;33538;48.432;11.350;2023-05-07T02:18:21;2.25;;;1.63;;
47778;SDS011;33538;48.432;11.350;2023-05-07T02:20:47;2.60;;;1.80;;
47778;SDS011;33538;48.432;11.350;2023-05-07T02:23:14;4.60;;;1.85;;
47778;SDS011;33538;48.432;11.350;2023-05-07T02:25:41;2.05;;;1.77;;
47778;SDS011;33538;48.432;11.350;2023-05-07T02:28:08;2.05;;;1.50;;
47778;SDS011;33538;48.432;11.350;2023-05-07T02:30:35;2.28;;;1.60;;
47778;SDS011;33538;48.432;11.350;2023-05-07T02:33:04;2.80;;;1.85;;
47778;SDS011;33538;48.432;11.350;2023-05-07T02:35:30;3.05;;;2.03;;
47778;SDS011;33538;48.432;11.350;2023-05-07T02:37:57;2.85;;;1.63;;
47778;SDS011;33538;48.432;11.350;2023-05-07T02:40:24;5.68;;;2.10;;
47778;SDS011;33538;48.432;11.350;2023-05-07T02:42:51;3.05;;;1.92;;
47778;SDS011;33538;48.432;11.350;2023-05-07T02:45:17;2.15;;;1.67;;
47778;SDS011;33538;48.432;11.350;2023-05-07T02:47:44;3.85;;;1.83;;
47778;SDS011;33538;48.432;11.350;2023-05-07T02:50:12;2.08;;;1.85;;
47778;SDS011;33538;48.432;11.350;2023-05-07T02:52:39;9.18;;;1.70;;
47778;SDS011;33538;48.432;11.350;2023-05-07T02:55:06;2.30;;;2.08;;
47778;SDS011;33538;48.432;11.350;2023-05-07T02:57:34;2.80;;;2.00;;
47778;SDS011;33538;48.432;11.350;2023-05-07T03:00:09;2.30;;;1.95;;
47778;SDS011;33538;48.432;11.350;2023-05-07T03:02:37;2.53;;;1.70;;
47778;SDS011;33538;48.432;11.350;2023-05-07T03:05:04;1.70;;;1.52;;
47778;SDS011;33538;48.432;11.350;2023-05-07T03:07:33;3.25;;;1.83;;
47778;SDS011;33538;48.432;11.350;2023-05-07T03:10:00;2.10;;;1.67;;
47778;SDS011;33538;48.432;11.350;2023-05-07T03:12:27;3.40;;;2.08;;
47778;SDS011;33538;48.432;11.350;2023-05-07T03:14:54;1.65;;;1.55;;
47778;SDS011;33538;48.432;11.350;2023-05-07T03:17:21;4.43;;;1.80;;
47778;SDS011;33538;48.432;11.350;2023-05-07T03:19:48;2.45;;;1.63;;
47778;SDS011;33538;48.432;11.350;2023-05-07T03:22:14;4.32;;;1.75;;
47778;SDS011;33538;48.432;11.350;2023-05-07T03:24:43;2.40;;;1.88;;
47778;SDS011;33538;48.432;11.350;2023-05-07T03:27:09;2.72;;;1.60;;
47778;SDS011;33538;48.432;11.350;2023-05-07T03:29:36;1.88;;;1.63;;
47778;SDS011;33538;48.432;11.350;2023-05-07T03:32:03;2.58;;;2.38;;
47778;SDS011;33538;48.432;11.350;2023-05-07T03:34:30;3.17;;;1.83;;
47778;SDS011;33538;48.432;11.350;2023-05-07T03:36:57;2.13;;;1.63;;
47778;SDS011;33538;48.432;11.350;2023-05-07T03:39:23;4.65;;;1.77;;
47778;SDS011;33538;48.432;11.350;2023-05-07T03:41:51;1.80;;;1.55;;
47778;SDS011;33538;48.432;11.350;2023-05-07T03:44:19;2.45;;;1.48;;
47778;SDS011;33538;48.432;11.350;2023-05-07T03:46:45;1.60;;;1.30;;
47778;SDS011;33538;48.432;11.350;2023-05-07T03:49:12;5.43;;;1.63;;
47778;SDS011;33538;48.432;11.350;2023-05-07T03:51:39;1.70;;;1.60;;
47778;SDS011;33538;48.432;11.350;2023-05-07T03:54:06;2.42;;;1.65;;
47778;SDS011;33538;48.432;11.350;2023-05-07T03:56:33;2.30;;;1.60;;
47778;SDS011;33538;48.432;11.350;2023-05-07T03:59:01;1.70;;;1.60;;
47778;SDS011;33538;48.432;11.350;2023-05-07T04:01:28;2.55;;;1.92;;
47778;SDS011;33538;48.432;11.350;2023-05-07T04:03:55;3.22;;;2.20;;
47778;SDS011;33538;48.432;11.350;2023-05-07T04:06:22;2.97;;;2.15;;
47778;SDS011;33538;48.432;11.350;2023-05-07T04:08:49;7.25;;;2.30;;
47778;SDS011;33538;48.432;11.350;2023-05-07T04:11:15;3.20;;;2.35;;
47778;SDS011;33538;48.432;11.350;2023-05-07T04:13:42;3.42;;;2.10;;
47778;SDS011;33538;48.432;11.350;2023-05-07T04:16:10;4.00;;;2.20;;
47778;SDS011;33538;48.432;11.350;2023-05-07T04:18:37;3.28;;;2.03;;
47778;SDS011;33538;48.432;11.350;2023-05-07T04:21:04;4.22;;;2.55;;
47778;SDS011;33538;48.432;11.350;2023-05-07T04:23:31;2.33;;;2.13;;
47778;SDS011;33538;48.432;11.350;2023-05-07T04:25:57;3.58;;;2.20;;
47778;SDS011;33538;48.432;11.350;2023-05-07T04:28:24;2.72;;;2.13;;
47778;SDS011;33538;48.432;11.350;2023-05-07T04:30:51;3.15;;;2.17;;
47778;SDS011;33538;48.432;11.350;2023-05-07T04:33:19;5.65;;;2.33;;
47778;SDS011;33538;48.432;11.350;2023-05-07T04:35:46;3.25;;;2.08;;
47778;SDS011;33538;48.432;11.350;2023-05-07T04:38:12;3.47;;;2.30;;
47778;SDS011;33538;48.432;11.350;2023-05-07T04:40:39;6.53;;;1.88;;
47778;SDS011;33538;48.432;11.350;2023-05-07T04:43:06;2.65;;;1.73;;
47778;SDS011;33538;48.432;11.350;2023-05-07T04:45:33;5.07;;;1.52;;
47778;SDS011;33538;48.432;11.350;2023-05-07T04:47:59;2.00;;;1.75;;
47778;SDS011;33538;48.432;11.350;2023-05-07T04:50:28;2.72;;;1.90;;
47778;SDS011;33538;48.432;11.350;2023-05-07T04:52:55;2.90;;;1.90;;
47778;SDS011;33538;48.432;11.350;2023-05-07T04:55:21;2.80;;;1.90;;
47778;SDS011;33538;48.432;11.350;2023-05-07T04:57:48;2.15;;;1.80;;
47778;SDS011;33538;48.432;11.350;2023-05-07T05:00:15;2.63;;;2.00;;
47778;SDS011;33538;48.432;11.350;2023-05-07T05:02:42;2.55;;;2.20;;
47778;SDS011;33538;48.432;11.350;2023-05-07T05:05:09;2.22;;;1.83;;
47778;SDS011;33538;48.432;11.350;2023-05-07T05:07:37;1.55;;;1.45;;
47778;SDS011;33538;48.432;11.350;2023-05-07T05:10:04;2.45;;;1.90;;
47778;SDS011;33538;48.432;11.350;2023-05-07T05:12:32;3.45;;;2.35;;
47778;SDS011;33538;48.432;11.350;2023-05-07T05:14:59;6.15;;;2.28;;
47778;SDS011;33538;48.432;11.350;2023-05-07T05:17:25;3.78;;;1.77;;
47778;SDS011;33538;48.432;11.350;2023-05-07T05:19:52;3.53;;;2.80;;
47778;SDS011;33538;48.432;11.350;2023-05-07T05:22:19;2.65;;;2.10;;
47778;SDS011;33538;48.432;11.350;2023-05-07T05:24:48;2.70;;;2.08;;
47778;SDS011;33538;48.432;11.350;2023-05-07T05:27:15;2.70;;;1.73;;
47778;SDS011;33538;48.432;11.350;2023-05-07T05:29:42;4.15;;;1.98;;
47778;SDS011;33538;48.432;11.350;2023-05-07T05:32:08;2.80;;;2.13;;
47778;SDS011;33538;48.432;11.350;2023-05-07T05:34:35;1.98;;;1.80;;
47778;SDS011;33538;48.432;11.350;2023-05-07T05:37:02;3.70;;;2.20;;
47778;SDS011;33538;48.432;11.350;2023-05-07T05:39:29;2.95;;;2.00;;
47778;SDS011;33538;48.432;11.350;2023-05-07T05:41:57;2.25;;;1.83;;
47778;SDS011;33538;48.432;11.350;2023-05-07T05:44:23;2.67;;;2.10;;
47778;SDS011;33538;48.432;11.350;2023-05-07T05:46:50;3.05;;;2.22;;
47778;SDS011;33538;48.432;11.350;2023-05-07T05:49:17;5.25;;;3.00;;
47778;SDS011;33538;48.432;11.350;2023-05-07T05:51:44;5.85;;;3.42;;
47778;SDS011;33538;48.432;11.350;2023-05-07T05:54:11;4.43;;;3.05;;
47778;SDS011;33538;48.432;11.350;2023-05-07T05:56:38;4.53;;;2.88;;
47778;SDS011;33538;48.432;11.350;2023-05-07T05:59:06;4.18;;;3.22;;
47778;SDS011;33538;48.432;11.350;2023-05-07T06:01:33;4.22;;;3.13;;
47778;SDS011;33538;48.432;11.350;2023-05-07T06:04:00;4.55;;;3.17;;
47778;SDS011;33538;48.432;11.350;2023-05-07T06:06:26;6.32;;;2.90;;
47778;SDS011;33538;48.432;11.350;2023-05-07T06:08:53;5.70;;;2.80;;
47778;SDS011;33538;48.432;11.350;2023-05-07T06:11:20;4.35;;;3.20;;
47778;SDS011;33538;48.432;11.350;2023-05-07T06:13:47;4.57;;;3.28;;
47778;SDS011;33538;48.432;11.350;2023-05-07T06:16:15;5.25;;;3.60;;
47778;SDS011;33538;48.432;11.350;2023-05-07T06:18:42;3.95;;;3.17;;
47778;SDS011;33538;48.432;11.350;2023-05-07T06:21:09;3.47;;;2.85;;
47778;SDS011;33538;48.432;11.350;2023-05-07T06:23:36;4.40;;;3.10;;
47778;SDS011;33538;48.432;11.350;2023-05-07T06:26:03;5.75;;;2.80;;
47778;SDS011;33538;48.432;11.350;2023-05-07T06:28:30;4.55;;;3.35;;
47778;SDS011;33538;48.432;11.350;2023-05-07T06:31:06;4.15;;;3.63;;
47778;SDS011;33538;48.432;11.350;2023-05-07T06:33:38;5.22;;;3.70;;
47778;SDS011;33538;48.432;11.350;2023-05-07T06:36:05;7.60;;;4.05;;
47778;SDS011;33538;48.432;11.350;2023-05-07T06:38:32;4.53;;;3.20;;
47778;SDS011;33538;48.432;11.350;2023-05-07T06:40:59;4.85;;;3.80;;
47778;SDS011;33538;48.432;11.350;2023-05-07T06:43:26;4.78;;;3.17;;
47778;SDS011;33538;48.432;11.350;2023-05-07T06:45:52;4.70;;;3.78;;
47778;SDS011;33538;48.432;11.350;2023-05-07T06:48:19;5.43;;;4.20;;
47778;SDS011;33538;48.432;11.350;2023-05-07T06:50:47;6.90;;;4.05;;
47778;SDS011;33538;48.432;11.350;2023-05-07T06:53:14;3.72;;;3.15;;
47778;SDS011;33538;48.432;11.350;2023-05-07T06:55:41;5.75;;;3.40;;
47778;SDS011;33538;48.432;11.350;2023-05-07T06:58:08;6.13;;;4.20;;
47778;SDS011;33538;48.432;11.350;2023-05-07T07:00:34;5.05;;;3.60;;
47778;SDS011;33538;48.432;11.350;2023-05-07T07:03:01;6.03;;;3.60;;
47778;SDS011;33538;48.432;11.350;2023-05-07T07:05:28;4.38;;;3.35;;
47778;SDS011;33538;48.432;11.350;2023-05-07T07:07:56;6.38;;;4.15;;
47778;SDS011;33538;48.432;11.350;2023-05-07T07:10:23;5.60;;;4.20;;
47778;SDS011;33538;48.432;11.350;2023-05-07T07:12:50;4.93;;;3.90;;
47778;SDS011;33538;48.432;11.350;2023-05-07T07:15:17;8.90;;;4.32;;
47778;SDS011;33538;48.432;11.350;2023-05-07T07:17:44;5.68;;;3.92;;
47778;SDS011;33538;48.432;11.350;2023-05-07T07:20:11;5.82;;;4.28;;
47778;SDS011;33538;48.432;11.350;2023-05-07T07:22:38;7.05;;;3.83;;
47778;SDS011;33538;48.432;11.350;2023-05-07T07:25:06;4.78;;;3.78;;
47778;SDS011;33538;48.432;11.350;2023-05-07T07:27:36;5.65;;;3.67;;
47778;SDS011;33538;48.432;11.350;2023-05-07T07:30:03;6.70;;;4.10;;
47778;SDS011;33538;48.432;11.350;2023-05-07T07:32:31;7.97;;;4.07;;
47778;SDS011;33538;48.432;11.350;2023-05-07T07:34:58;7.28;;;4.28;;
47778;SDS011;33538;48.432;11.350;2023-05-07T07:37:25;4.82;;;3.35;;
47778;SDS011;33538;48.432;11.350;2023-05-07T07:39:51;5.55;;;3.92;;
47778;SDS011;33538;48.432;11.350;2023-05-07T07:42:19;6.47;;;4.00;;
47778;SDS011;33538;48.432;11.350;2023-05-07T07:44:46;7.45;;;3.88;;
47778;SDS011;33538;48.432;11.350;2023-05-07T07:47:13;5.85;;;4.20;;
47778;SDS011;33538;48.432;11.350;2023-05-07T07:49:40;8.23;;;3.83;;
47778;SDS011;33538;48.432;11.350;2023-05-07T07:52:06;7.15;;;4.20;;
47778;SDS011;33538;48.432;11.350;2023-05-07T07:54:33;4.97;;;3.90;;
47778;SDS011;33538;48.432;11.350;2023-05-07T07:57:00;8.82;;;3.80;;
47778;SDS011;33538;48.432;11.350;2023-05-07T07:59:28;7.78;;;4.57;;
47778;SDS011;33538;48.432;11.350;2023-05-07T08:01:55;5.93;;;4.05;;
47778;SDS011;33538;48.432;11.350;2023-05-07T08:04:21;8.30;;;4.22;;
47778;SDS011;33538;48.432;11.350;2023-05-07T08:06:48;6.18;;;3.78;;
47778;SDS011;33538;48.432;11.350;2023-05-07T08:09:15;7.50;;;3.95;;
47778;SDS011;33538;48.432;11.350;2023-05-07T08:11:42;5.57;;;3.55;;
47778;SDS011;33538;48.432;11.350;2023-05-07T08:14:08;5.18;;;4.13;;
47778;SDS011;33538;48.432;11.350;2023-05-07T08:16:37;4.82;;;3.67;;
47778;SDS011;33538;48.432;11.350;2023-05-07T08:19:04;5.68;;;4.25;;
47778;SDS011;33538;48.432;11.350;2023-05-07T08:21:30;6.20;;;3.88;;
47778;SDS011;33538;48.432;11.350;2023-05-07T08:23:59;5.78;;;4.20;;
47778;SDS011;33538;48.432;11.350;2023-05-07T08:26:26;8.38;;;3.70;;
47778;SDS011;33538;48.432;11.350;2023-05-07T08:28:53;6.07;;;4.03;;
47778;SDS011;33538;48.432;11.350;2023-05-07T08:31:20;4.80;;;3.53;;
47778;SDS011;33538;48.432;11.350;2023-05-07T08:33:48;6.53;;;4.05;;
47778;SDS011;33538;48.432;11.350;2023-05-07T08:36:15;7.05;;;4.03;;
47778;SDS011;33538;48.432;11.350;2023-05-07T08:38:42;6.57;;;3.97;;
47778;SDS011;33538;48.432;11.350;2023-05-07T08:41:09;7.55;;;4.13;;
47778;SDS011;33538;48.432;11.350;2023-05-07T08:43:36;5.70;;;3.75;;
47778;SDS011;33538;48.432;11.350;2023-05-07T08:46:06;5.05;;;3.67;;
47778;SDS011;33538;48.432;11.350;2023-05-07T08:48:35;6.28;;;3.13;;
47778;SDS011;33538;48.432;11.350;2023-05-07T08:51:04;4.97;;;3.42;;
47778;SDS011;33538;48.432;11.350;2023-05-07T08:53:31;6.72;;;3.88;;
47778;SDS011;33538;48.432;11.350;2023-05-07T08:55:59;5.28;;;3.75;;
47778;SDS011;33538;48.432;11.350;2023-05-07T08:58:27;4.55;;;3.70;;
47778;SDS011;33538;48.432;11.350;2023-05-07T09:00:53;6.45;;;4.03;;
47778;SDS011;33538;48.432;11.350;2023-05-07T09:03:20;4.45;;;3.60;;
47778;SDS011;33538;48.432;11.350;2023-05-07T09:05:47;5.10;;;3.42;;
47778;SDS011;33538;48.432;11.350;2023-05-07T09:08:15;3.95;;;2.78;;
47778;SDS011;33538;48.432;11.350;2023-05-07T09:10:42;8.05;;;3.15;;
47778;SDS011;33538;48.432;11.350;2023-05-07T09:13:10;3.90;;;3.35;;
47778;SDS011;33538;48.432;11.350;2023-05-07T09:15:38;6.60;;;2.70;;
47778;SDS011;33538;48.432;11.350;2023-05-07T09:18:04;4.25;;;2.83;;
47778;SDS011;33538;48.432;11.350;2023-05-07T09:20:31;4.15;;;2.42;;
47778;SDS011;33538;48.432;11.350;2023-05-07T09:22:58;4.75;;;2.88;;
47778;SDS011;33538;48.432;11.350;2023-05-07T09:25:29;4.70;;;2.85;;
47778;SDS011;33538;48.432;11.350;2023-05-07T09:27:57;4.28;;;2.80;;
47778;SDS011;33538;48.432;11.350;2023-05-07T09:30:27;3.60;;;2.10;;
47778;SDS011;33538;48.432;11.350;2023-05-07T09:32:54;1.95;;;1.50;;
47778;SDS011;33538;48.432;11.350;2023-05-07T09:35:21;2.70;;;2.10;;
47778;SDS011;33538;48.432;11.350;2023-05-07T09:37:47;2.40;;;2.08;;
47778;SDS011;33538;48.432;11.350;2023-05-07T09:40:21;2.53;;;1.40;;
47778;SDS011;33538;48.432;11.350;2023-05-07T09:42:49;1.67;;;1.27;;
47778;SDS011;33538;48.432;11.350;2023-05-07T09:45:20;1.50;;;1.40;;
47778;SDS011;33538;48.432;11.350;2023-05-07T09:47:48;1.52;;;1.42;;
47778;SDS011;33538;48.432;11.350;2023-05-07T09:50:19;2.35;;;1.77;;
47778;SDS011;33538;48.432;11.350;2023-05-07T09:52:51;1.42;;;1.33;;
47778;SDS011;33538;48.432;11.350;2023-05-07T09:55:18;1.63;;;1.42;;
47778;SDS011;33538;48.432;11.350;2023-05-07T09:57:47;2.17;;;1.70;;
47778;SDS011;33538;48.432;11.350;2023-05-07T10:00:16;3.38;;;1.88;;
47778;SDS011;33538;48.432;11.350;2023-05-07T10:02:44;3.03;;;2.10;;
47778;SDS011;33538;48.432;11.350;2023-05-07T10:05:13;1.27;;;1.15;;
47778;SDS011;33538;48.432;11.350;2023-05-07T10:07:40;2.60;;;1.23;;
47778;SDS011;33538;48.432;11.350;2023-05-07T10:10:07;1.52;;;1.15;;
47778;SDS011;33538;48.432;11.350;2023-05-07T10:12:34;1.67;;;1.23;;
47778;SDS011;33538;48.432;11.350;2023-05-07T10:15:03;1.52;;;1.00;;
47778;SDS011;33538;48.432;11.350;2023-05-07T10:17:32;3.03;;;1.75;;
47778;SDS011;33538;48.432;11.350;2023-05-07T10:20:01;2.28;;;1.55;;
47778;SDS011;33538;48.432;11.350;2023-05-07T10:22:30;3.03;;;2.05;;
47778;SDS011;33538;48.432;11.350;2023-05-07T10:24:58;2.75;;;2.30;;
47778;SDS011;33538;48.432;11.350;2023-05-07T10:27:28;5.00;;;2.42;;
47778;SDS011;33538;48.432;11.350;2023-05-07T10:29:58;1.40;;;1.30;;
47778;SDS011;33538;48.432;11.350;2023-05-07T10:32:35;2.67;;;1.60;;
47778;SDS011;33538;48.432;11.350;2023-05-07T10:35:06;2.45;;;1.88;;
47778;SDS011;33538;48.432;11.350;2023-05-07T10:37:40;3.25;;;1.67;;
47778;SDS011;33538;48.432;11.350;2023-05-07T10:40:07;2.40;;;1.80;;
47778;SDS011;33538;48.432;11.350;2023-05-07T10:42:35;1.83;;;1.60;;
47778;SDS011;33538;48.432;11.350;2023-05-07T10:45:13;4.18;;;2.08;;
47778;SDS011;33538;48.432;11.350;2023-05-07T10:50:46;3.88;;;2.00;;
47778;SDS011;33538;48.432;11.350;2023-05-07T10:53:23;3.03;;;1.80;;
47778;SDS011;33538;48.432;11.350;2023-05-07T10:55:51;3.45;;;1.85;;
47778;SDS011;33538;48.432;11.350;2023-05-07T10:58:24;2.60;;;1.60;;
47778;SDS011;33538;48.432;11.350;2023-05-07T11:00:59;2.72;;;1.80;;
47778;SDS011;33538;48.432;11.350;2023-05-07T11:03:27;2.70;;;1.85;;
47778;SDS011;33538;48.432;11.350;2023-05-07T11:06:08;2.08;;;1.50;;
47778;SDS011;33538;48.432;11.350;2023-05-07T11:08:52;2.38;;;1.80;;
47778;SDS011;33538;48.432;11.350;2023-05-07T11:11:20;3.17;;;1.70;;
47778;SDS011;33538;48.432;11.350;2023-05-07T11:14:13;1.48;;;1.35;;
47778;SDS011;33538;48.432;11.350;2023-05-07T11:16:42;1.65;;;1.52;;
47778;SDS011;33538;48.432;11.350;2023-05-07T11:19:10;1.40;;;1.30;;
47778;SDS011;33538;48.432;11.350;2023-05-07T11:21:37;3.72;;;1.60;;
47778;SDS011;33538;48.432;11.350;2023-05-07T11:24:05;2.78;;;1.58;;
47778;SDS011;33538;48.432;11.350;2023-05-07T11:26:46;3.20;;;1.77;;
47778;SDS011;33538;48.432;11.350;2023-05-07T11:29:14;1.48;;;1.38;;
47778;SDS011;33538;48.432;11.350;2023-05-07T11:31:49;1.75;;;1.27;;
47778;SDS011;33538;48.432;11.350;2023-05-07T11:34:20;2.25;;;1.88;;
47778;SDS011;33538;48.432;11.350;2023-05-07T11:36:47;2.28;;;1.55;;
47778;SDS011;33538;48.432;11.350;2023-05-07T11:39:24;5.40;;;1.40;;
47778;SDS011;33538;48.432;11.350;2023-05-07T11:41:55;3.17;;;1.50;;
47778;SDS011;33538;48.432;11.350;2023-05-07T11:44:22;2.03;;;1.67;;
47778;SDS011;33538;48.432;11.350;2023-05-07T11:46:50;1.45;;;1.15;;
47778;SDS011;33538;48.432;11.350;2023-05-07T11:49:17;2.55;;;1.40;;
47778;SDS011;33538;48.432;11.350;2023-05-07T11:51:44;1.85;;;1.35;;
47778;SDS011;33538;48.432;11.350;2023-05-07T11:54:11;1.83;;;1.55;;
47778;SDS011;33538;48.432;11.350;2023-05-07T11:56:42;1.95;;;1.40;;
47778;SDS011;33538;48.432;11.350;2023-05-07T11:59:10;1.83;;;1.38;;
47778;SDS011;33538;48.432;11.350;2023-05-07T12:01:37;6.20;;;1.50;;
47778;SDS011;33538;48.432;11.350;2023-05-07T12:04:05;2.78;;;1.60;;
47778;SDS011;33538;48.432;11.350;2023-05-07T12:06:35;2.83;;;1.60;;
47778;SDS011;33538;48.432;11.350;2023-05-07T12:09:03;2.90;;;1.40;;
47778;SDS011;33538;48.432;11.350;2023-05-07T12:11:30;2.47;;;1.55;;
47778;SDS011;33538;48.432;11.350;2023-05-07T12:13:56;1.80;;;1.38;;
47778;SDS011;33538;48.432;11.350;2023-05-07T12:16:25;2.10;;;1.45;;
47778;SDS011;33538;48.432;11.350;2023-05-07T12:18:53;2.53;;;1.60;;
47778;SDS011;33538;48.432;11.350;2023-05-07T12:21:21;3.67;;;1.83;;
47778;SDS011;33538;48.432;11.350;2023-05-07T12:23:49;2.58;;;1.75;;
47778;SDS011;33538;48.432;11.350;2023-05-07T12:26:16;2.40;;;1.70;;
47778;SDS011;33538;48.432;11.350;2023-05-07T12:28:45;2.33;;;1.77;;
47778;SDS011;33538;48.432;11.350;2023-05-07T12:31:13;1.90;;;1.67;;
47778;SDS011;33538;48.432;11.350;2023-05-07T12:33:41;1.75;;;1.33;;
47778;SDS011;33538;48.432;11.350;2023-05-07T12:36:08;1.80;;;1.50;;
47778;SDS011;33538;48.432;11.350;2023-05-07T12:38:39;2.45;;;1.75;;
47778;SDS011;33538;48.432;11.350;2023-05-07T12:41:07;2.38;;;2.00;;
47778;SDS011;33538;48.432;11.350;2023-05-07T12:43:35;3.38;;;1.90;;
47778;SDS011;33538;48.432;11.350;2023-05-07T12:46:03;3.28;;;1.60;;
47778;SDS011;33538;48.432;11.350;2023-05-07T12:48:31;1.70;;;1.60;;
47778;SDS011;33538;48.432;11.350;2023-05-07T12:50:59;2.40;;;1.70;;
47778;SDS011;33538;48.432;11.350;2023-05-07T12:53:27;3.10;;;1.60;;
47778;SDS011;33538;48.432;11.350;2023-05-07T12:55:57;2.28;;;1.90;;
47778;SDS011;33538;48.432;11.350;2023-05-07T12:58:25;2.63;;;1.55;;
47778;SDS011;33538;48.432;11.350;2023-05-07T13:00:53;1.80;;;1.70;;
47778;SDS011;33538;48.432;11.350;2023-05-07T13:03:24;2.47;;;1.70;;
47778;SDS011;33538;48.432;11.350;2023-05-07T13:05:53;2.13;;;1.70;;
47778;SDS011;33538;48.432;11.350;2023-05-07T13:08:24;2.15;;;1.80;;
47778;SDS011;33538;48.432;11.350;2023-05-07T13:10:52;2.72;;;2.13;;
47778;SDS011;33538;48.432;11.350;2023-05-07T13:13:20;2.78;;;1.80;;
47778;SDS011;33538;48.432;11.350;2023-05-07T13:15:48;2.72;;;1.70;;
47778;SDS011;33538;48.432;11.350;2023-05-07T13:18:14;2.08;;;1.73;;
47778;SDS011;33538;48.432;11.350;2023-05-07T13:20:41;3.13;;;1.83;;
47778;SDS011;33538;48.432;11.350;2023-05-07T13:23:08;1.50;;;1.40;;
47778;SDS011;33538;48.432;11.350;2023-05-07T13:25:35;1.75;;;1.40;;
47778;SDS011;33538;48.432;11.350;2023-05-07T13:28:04;2.83;;;1.50;;
47778;SDS011;33538;48.432;11.350;2023-05-07T13:30:37;2.30;;;1.35;;
47778;SDS011;33538;48.432;11.350;2023-05-07T13:33:05;3.20;;;1.50;;
47778;SDS011;33538;48.432;11.350;2023-05-07T13:35:32;1.63;;;1.42;;
47778;SDS011;33538;48.432;11.350;2023-05-07T13:37:59;2.40;;;1.30;;
47778;SDS011;33538;48.432;11.350;2023-05-07T13:40:25;1.73;;;1.33;;
47778;SDS011;33538;48.432;11.350;2023-05-07T13:42:52;1.77;;;1.67;;
47778;SDS011;33538;48.432;11.350;2023-05-07T13:45:19;2.10;;;1.55;;
47778;SDS011;33538;48.432;11.350;2023-05-07T13:47:48;2.30;;;1.90;;
47778;SDS011;33538;48.432;11.350;2023-05-07T13:50:14;2.65;;;1.60;;
47778;SDS011;33538;48.432;11.350;2023-05-07T13:52:41;1.70;;;1.52;;
47778;SDS011;33538;48.432;11.350;2023-05-07T13:55:12;2.03;;;1.73;;
47778;SDS011;33538;48.432;11.350;2023-05-07T13:57:38;2.67;;;1.67;;
47778;SDS011;33538;48.432;11.350;2023-05-07T14:00:06;2.65;;;1.83;;
47778;SDS011;33538;48.432;11.350;2023-05-07T14:02:33;2.13;;;1.70;;
47778;SDS011;33538;48.432;11.350;2023-05-07T14:05:02;3.15;;;1.85;;
47778;SDS011;33538;48.432;11.350;2023-05-07T14:07:29;3.03;;;1.70;;
47778;SDS011;33538;48.432;11.350;2023-05-07T14:09:56;1.98;;;1.77;;
47778;SDS011;33538;48.432;11.350;2023-05-07T14:12:23;3.70;;;2.53;;
47778;SDS011;33538;48.432;11.350;2023-05-07T14:14:50;3.60;;;2.40;;
47778;SDS011;33538;48.432;11.350;2023-05-07T14:17:17;12.10;;;4.68;;
47778;SDS011;33538;48.432;11.350;2023-05-07T14:19:44;2.42;;;2.13;;
47778;SDS011;33538;48.432;11.350;2023-05-07T14:22:12;2.45;;;2.10;;
47778;SDS011;33538;48.432;11.350;2023-05-07T14:24:39;2.05;;;1.85;;
47778;SDS011;33538;48.432;11.350;2023-05-07T14:27:06;2.15;;;1.90;;
47778;SDS011;33538;48.432;11.350;2023-05-07T14:29:33;1.67;;;1.58;;
47778;SDS011;33538;48.432;11.350;2023-05-07T14:31:59;2.45;;;1.70;;
47778;SDS011;33538;48.432;11.350;2023-05-07T14:34:26;2.03;;;1.83;;
47778;SDS011;33538;48.432;11.350;2023-05-07T14:36:53;1.92;;;1.70;;
47778;SDS011;33538;48.432;11.350;2023-05-07T14:39:21;2.10;;;1.60;;